Time;durP1;ratioP1;P1;durP2;ratioP2;P2;SDS_P1;SDS_P2;PMS_P1;PMS_P2;Temp;Humidity;BMP_temperature;BMP_pressure;BME280_temperature;BME280_humidity;BME280_pressure;Samples;Min_cycle;Max_cycle;Signal;HPM_P1;HPM_P2
2023/04/02 00:00:09;;;;;;;13.65;7.18;;;5.90;99.90;;;;;;4957128;28;20097;-52
2023/04/02 00:02:44;;;;;;;13.50;6.80;;;6.00;99.90;;;;;;4980847;28;20035;-52
2023/04/02 00:05:17;;;;;;;12.20;6.55;;;5.90;99.90;;;;;;4956527;28;20046;-53
2023/04/02 00:07:47;;;;;;;14.05;6.47;;;6.00;99.90;;;;;;4955592;28;20054;-51
2023/04/02 00:10:34;;;;;;;15.00;6.18;;;5.80;99.90;;;;;;4972662;28;20034;-51
2023/04/02 00:13:08;;;;;;;12.75;5.97;;;5.90;99.90;;;;;;4983728;28;20046;-51
2023/04/02 00:15:34;;;;;;;11.05;5.97;;;5.80;99.90;;;;;;4976216;28;20406;-52
2023/04/02 00:18:01;;;;;;;13.25;6.82;;;5.80;99.90;;;;;;4973016;28;20798;-53
2023/04/02 00:20:29;;;;;;;14.07;6.50;;;5.70;99.90;;;;;;4973388;28;20042;-50
2023/04/02 00:22:55;;;;;;;11.70;5.72;;;5.70;99.90;;;;;;4974992;28;20045;-52
2023/04/02 00:25:25;;;;;;;10.75;5.93;;;5.60;99.90;;;;;;4972653;28;20066;-51
2023/04/02 00:27:51;;;;;;;11.57;5.55;;;5.60;99.90;;;;;;4956328;28;20078;-52
2023/04/02 00:30:17;;;;;;;13.43;5.82;;;5.70;99.90;;;;;;4973604;28;20546;-48
2023/04/02 00:32:42;;;;;;;13.13;6.10;;;5.60;99.90;;;;;;4972626;28;20122;-50
2023/04/02 00:35:23;;;;;;;15.45;6.50;;;5.70;99.90;;;;;;4980073;28;20085;-51
2023/04/02 00:37:50;;;;;;;13.70;6.40;;;5.50;99.90;;;;;;4972351;28;20097;-50
2023/04/02 00:40:28;;;;;;;15.65;6.55;;;5.50;99.90;;;;;;4978780;28;20045;-51
2023/04/02 00:42:58;;;;;;;13.02;6.35;;;5.60;99.90;;;;;;4981486;28;20490;-51
2023/04/02 00:45:25;;;;;;;12.40;6.10;;;5.50;99.90;;;;;;4976086;28;20077;-51
2023/04/02 00:47:51;;;;;;;10.63;6.25;;;5.60;99.90;;;;;;4973151;28;20046;-51
2023/04/02 00:50:31;;;;;;;10.90;5.50;;;5.90;99.90;;;;;;4974781;28;20038;-52
2023/04/02 00:52:59;;;;;;;13.10;5.95;;;5.50;99.90;;;;;;4962330;28;20049;-51
2023/04/02 00:55:38;;;;;;;10.55;6.22;;;5.60;99.90;;;;;;4973257;28;20043;-52
2023/04/02 00:58:11;;;;;;;11.38;6.30;;;5.40;99.90;;;;;;4973594;28;20035;-52
2023/04/02 01:00:37;;;;;;;12.43;5.60;;;5.30;99.90;;;;;;4975995;28;20055;-55
2023/04/02 01:03:28;;;;;;;9.57;5.68;;;5.40;99.90;;;;;;4972252;28;20039;-51
2023/04/02 01:06:02;;;;;;;9.57;5.60;;;5.20;99.90;;;;;;4979995;28;20494;-52
2023/04/02 01:09:15;;;;;;;12.43;7.03;;;5.50;99.90;;;;;;4972675;28;20054;-51
2023/04/02 01:11:41;;;;;;;9.45;5.63;;;5.30;99.90;;;;;;4981727;28;20561;-52
2023/04/02 01:14:27;;;;;;;10.27;5.82;;;5.30;99.90;;;;;;4971733;28;20051;-53
2023/04/02 01:17:19;;;;;;;8.23;4.80;;;5.20;99.90;;;;;;4982354;28;20074;-51
2023/04/02 01:19:59;;;;;;;11.32;5.60;;;5.20;99.90;;;;;;4977791;28;20117;-51
2023/04/02 01:22:46;;;;;;;12.23;5.93;;;5.10;99.90;;;;;;4979175;28;20085;-54
2023/04/02 01:25:46;;;;;;;10.50;5.40;;;5.20;99.90;;;;;;4963428;28;20118;-52
2023/04/02 01:28:53;;;;;;;11.98;5.20;;;5.20;99.90;;;;;;4975346;28;20043;-50
2023/04/02 01:31:20;;;;;;;11.85;5.45;;;5.20;99.90;;;;;;4958351;28;20121;-51
2023/04/02 01:33:47;;;;;;;10.13;5.03;;;5.40;99.90;;;;;;4976703;28;20398;-53
2023/04/02 01:36:47;;;;;;;8.85;5.07;;;5.20;99.90;;;;;;4985994;28;20050;-52
2023/04/02 01:39:40;;;;;;;9.00;5.40;;;5.20;99.90;;;;;;4973890;28;20085;-53
2023/04/02 01:42:23;;;;;;;8.00;4.93;;;5.10;99.90;;;;;;4980586;28;20046;-52
2023/04/02 01:44:50;;;;;;;10.93;5.30;;;5.10;99.90;;;;;;4984005;28;20043;-50
2023/04/02 01:47:18;;;;;;;10.93;4.90;;;5.10;99.90;;;;;;4978310;28;20184;-51
2023/04/02 01:49:45;;;;;;;8.52;4.75;;;5.00;99.90;;;;;;4976124;28;20038;-49
2023/04/02 01:52:25;;;;;;;12.18;5.05;;;5.10;99.90;;;;;;4977297;28;20116;-53
2023/04/02 01:54:51;;;;;;;8.30;4.53;;;5.00;99.90;;;;;;4980705;28;20124;-52
2023/04/02 01:57:17;;;;;;;8.50;4.57;;;4.90;99.90;;;;;;4975373;28;20505;-52
2023/04/02 01:59:44;;;;;;;8.23;4.93;;;5.00;99.90;;;;;;4981690;28;20190;-50
2023/04/02 02:02:13;;;;;;;10.60;4.97;;;4.90;99.90;;;;;;4975710;28;20046;-53
2023/04/02 02:04:40;;;;;;;11.82;4.60;;;5.00;99.90;;;;;;4962071;28;20148;-52
2023/04/02 02:07:15;;;;;;;9.65;4.45;;;5.40;99.90;;;;;;4975320;28;20390;-51
2023/04/02 02:09:41;;;;;;;10.10;4.60;;;4.90;99.90;;;;;;4979784;28;20060;-51
2023/04/02 02:12:12;;;;;;;7.18;3.95;;;4.90;99.90;;;;;;4978870;28;20031;-52
2023/04/02 02:14:44;;;;;;;10.85;4.55;;;4.90;99.90;;;;;;4979045;28;20041;-54
2023/04/02 02:17:16;;;;;;;6.97;4.22;;;5.20;99.90;;;;;;4976519;28;20569;-51
2023/04/02 02:19:45;;;;;;;10.32;4.47;;;5.20;99.90;;;;;;4977274;28;20043;-49
2023/04/02 02:22:35;;;;;;;10.93;4.65;;;4.80;99.90;;;;;;4975600;28;20490;-49
2023/04/02 02:25:24;;;;;;;6.95;4.07;;;4.80;99.90;;;;;;4976972;28;20038;-52
2023/04/02 02:28:08;;;;;;;7.38;3.90;;;4.60;99.90;;;;;;4960893;28;20101;-51
2023/04/02 02:30:55;;;;;;;10.02;4.28;;;4.60;99.90;;;;;;4980594;28;20046;-52
2023/04/02 02:33:42;;;;;;;8.02;3.83;;;4.50;99.90;;;;;;4983664;28;20106;-50
2023/04/02 02:36:15;;;;;;;9.88;3.55;;;4.40;99.90;;;;;;4975792;28;20430;-52
2023/04/02 02:38:50;;;;;;;7.60;3.53;;;4.30;99.90;;;;;;4981378;28;20450;-54
2023/04/02 02:41:41;;;;;;;9.95;4.07;;;4.10;99.90;;;;;;4983958;28;20046;-50
2023/04/02 02:44:19;;;;;;;6.68;3.28;;;4.10;99.90;;;;;;4977036;28;20117;-51
2023/04/02 02:47:12;;;;;;;11.07;3.85;;;4.00;99.90;;;;;;4977510;28;20042;-48
2023/04/02 02:49:48;;;;;;;9.40;3.42;;;3.80;99.90;;;;;;4976224;28;21341;-53
2023/04/02 02:52:16;;;;;;;7.70;3.60;;;3.70;99.90;;;;;;4978387;28;20177;-50
2023/04/02 02:54:54;;;;;;;8.75;3.25;;;3.60;99.90;;;;;;4982209;28;20187;-51
2023/04/02 02:57:25;;;;;;;9.45;3.05;;;3.60;99.90;;;;;;4977274;28;20050;-50
2023/04/02 02:59:51;;;;;;;6.93;2.95;;;3.50;99.90;;;;;;4975066;28;20026;-48
2023/04/02 03:02:17;;;;;;;10.43;3.40;;;3.40;99.90;;;;;;4982200;28;20560;-53
2023/04/02 03:04:49;;;;;;;8.52;3.67;;;3.50;99.90;;;;;;4975052;28;20043;-48
2023/04/02 03:07:18;;;;;;;9.43;3.63;;;3.30;99.90;;;;;;4984523;28;20663;-52
2023/04/02 03:10:08;;;;;;;10.30;3.10;;;3.50;99.90;;;;;;4974745;28;20125;-51
2023/04/02 03:12:33;;;;;;;14.80;3.42;;;3.20;99.90;;;;;;4981827;28;20050;-51
2023/04/02 03:15:37;;;;;;;8.68;3.17;;;3.30;99.90;;;;;;4975259;28;20070;-54
2023/04/02 03:18:11;;;;;;;9.15;3.35;;;3.20;99.90;;;;;;4951532;29;20109;-51
2023/04/02 03:20:57;;;;;;;6.25;2.78;;;3.20;99.90;;;;;;4970923;28;20402;-51
2023/04/02 03:23:47;;;;;;;9.65;3.10;;;3.10;99.90;;;;;;4985823;28;20355;-51
2023/04/02 03:26:30;;;;;;;7.32;2.92;;;3.00;99.90;;;;;;4975660;28;20070;-53
2023/04/02 03:29:02;;;;;;;7.53;2.90;;;2.90;99.90;;;;;;4978672;28;20402;-51
2023/04/02 03:32:22;;;;;;;8.75;2.97;;;2.90;99.90;;;;;;4985540;28;20122;-50
2023/04/02 03:34:58;;;;;;;7.43;3.03;;;2.80;99.90;;;;;;4951492;29;20070;-53
2023/04/02 03:37:41;;;;;;;6.53;3.03;;;2.90;99.90;;;;;;4950759;29;20079;-51
2023/04/02 03:40:19;;;;;;;8.95;2.83;;;2.80;99.90;;;;;;4970674;28;20046;-51
2023/04/02 03:42:53;;;;;;;7.53;2.90;;;2.80;99.90;;;;;;4974504;28;20060;-52
2023/04/02 03:45:28;;;;;;;7.18;2.67;;;2.70;99.90;;;;;;4979370;28;20150;-52
2023/04/02 03:48:03;;;;;;;6.65;2.60;;;2.70;99.90;;;;;;4973581;28;20053;-51
2023/04/02 03:50:54;;;;;;;7.28;2.80;;;2.60;99.90;;;;;;4977222;28;20050;-51
2023/04/02 03:53:23;;;;;;;8.32;2.80;;;2.50;99.90;;;;;;4979798;28;20101;-54
2023/04/02 03:55:50;;;;;;;8.23;2.97;;;2.50;99.90;;;;;;4986358;28;20070;-50
2023/04/02 03:58:38;;;;;;;6.85;2.80;;;2.50;99.90;;;;;;4972831;28;20051;-51
2023/04/02 04:01:16;;;;;;;8.55;2.85;;;2.50;99.90;;;;;;4974104;28;20418;-53
2023/04/02 04:03:45;;;;;;;7.35;2.58;;;2.50;99.90;;;;;;4957119;28;20102;-53
2023/04/02 04:06:27;;;;;;;9.43;3.10;;;2.50;99.90;;;;;;4972525;28;20034;-54
2023/04/02 04:09:10;;;;;;;7.10;2.85;;;2.30;99.90;;;;;;4985942;28;20042;-50
2023/04/02 04:11:43;;;;;;;7.40;2.95;;;2.30;99.90;;;;;;4976152;28;20486;-51
2023/04/02 04:14:16;;;;;;;8.90;3.08;;;2.40;99.90;;;;;;4981442;28;20466;-52
2023/04/02 04:17:12;;;;;;;6.63;2.75;;;2.30;99.90;;;;;;4974397;28;20047;-49
2023/04/02 04:19:54;;;;;;;11.07;3.15;;;2.20;99.90;;;;;;4970629;28;20509;-50
2023/04/02 04:22:32;;;;;;;7.35;2.92;;;2.10;99.90;;;;;;4983021;28;20038;-52
2023/04/02 04:25:01;;;;;;;8.70;3.22;;;2.20;99.90;;;;;;4975005;28;20082;-50
2023/04/02 04:27:44;;;;;;;9.80;3.30;;;2.30;99.90;;;;;;4973507;28;20426;-50
2023/04/02 04:30:17;;;;;;;5.57;3.22;;;2.30;99.90;;;;;;4983064;28;20046;-50
2023/04/02 04:32:56;;;;;;;7.35;2.80;;;2.30;99.90;;;;;;4973704;28;20377;-53
2023/04/02 04:35:33;;;;;;;6.03;2.88;;;2.30;99.90;;;;;;4979053;28;20092;-50
2023/04/02 04:38:16;;;;;;;9.88;2.90;;;2.30;99.90;;;;;;4984081;28;20394;-51
2023/04/02 04:40:52;;;;;;;8.10;3.05;;;2.40;99.90;;;;;;4972579;28;20054;-51
2023/04/02 04:43:41;;;;;;;10.93;3.10;;;2.30;99.90;;;;;;4981642;28;20097;-53
2023/04/02 04:46:26;;;;;;;8.05;3.08;;;2.30;99.90;;;;;;4956507;28;20056;-53
2023/04/02 04:49:09;;;;;;;6.55;2.80;;;2.20;99.90;;;;;;4975885;28;20038;-51
2023/04/02 04:51:49;;;;;;;10.43;2.93;;;2.20;99.90;;;;;;4972964;28;20524;-50
2023/04/02 04:54:17;;;;;;;6.40;2.60;;;2.30;99.90;;;;;;4972717;28;20298;-52
2023/04/02 04:56:49;;;;;;;8.35;2.97;;;2.40;99.90;;;;;;4972605;28;20564;-53
2023/04/02 04:59:26;;;;;;;8.00;3.17;;;2.50;99.90;;;;;;4973425;28;20093;-52
2023/04/02 05:01:58;;;;;;;7.00;2.60;;;2.30;99.90;;;;;;4979965;28;20509;-52
2023/04/02 05:04:39;;;;;;;11.40;2.83;;;2.20;99.90;;;;;;4972719;28;20039;-50
2023/04/02 05:07:30;;;;;;;7.57;2.60;;;2.30;99.90;;;;;;4977025;28;20038;-52
2023/04/02 05:10:12;;;;;;;6.95;2.67;;;2.40;99.90;;;;;;4976590;28;20043;-51
2023/04/02 05:12:55;;;;;;;9.18;2.67;;;2.30;99.90;;;;;;4985406;28;20501;-51
2023/04/02 05:15:33;;;;;;;8.53;2.30;;;2.40;99.90;;;;;;4978094;28;20545;-51
2023/04/02 05:18:29;;;;;;;8.60;2.50;;;2.30;99.90;;;;;;4980989;28;20070;-54
2023/04/02 05:21:21;;;;;;;5.82;2.50;;;2.30;99.90;;;;;;4983673;28;20047;-52
2023/04/02 05:24:06;;;;;;;7.68;2.08;;;2.40;99.90;;;;;;4977220;28;20045;-53
2023/04/02 05:26:43;;;;;;;8.73;2.35;;;2.30;99.90;;;;;;4980994;28;20066;-55
2023/04/02 05:29:26;;;;;;;5.15;2.22;;;2.30;99.90;;;;;;4984126;28;20085;-54
2023/04/02 05:32:00;;;;;;;8.07;2.20;;;2.30;99.90;;;;;;4973323;28;20046;-50
2023/04/02 05:34:36;;;;;;;7.60;2.60;;;2.30;99.90;;;;;;4973661;28;20047;-51
2023/04/02 05:37:03;;;;;;;7.70;2.60;;;2.30;99.90;;;;;;4978032;28;20281;-52
2023/04/02 05:39:31;;;;;;;7.75;3.15;;;2.30;99.90;;;;;;4972194;28;20047;-53
2023/04/02 05:42:07;;;;;;;7.43;2.30;;;2.30;99.90;;;;;;4978045;28;20464;-54
2023/04/02 05:44:54;;;;;;;5.85;2.30;;;2.20;99.90;;;;;;4973085;28;20216;-49
2023/04/02 05:47:27;;;;;;;3.83;2.00;;;2.30;99.90;;;;;;4978400;28;20042;-51
2023/04/02 05:50:08;;;;;;;6.70;2.40;;;2.20;99.90;;;;;;4970927;28;20034;-54
2023/04/02 05:52:44;;;;;;;9.45;2.20;;;2.20;99.90;;;;;;4975494;28;20054;-51
2023/04/02 05:55:15;;;;;;;8.43;2.15;;;2.20;99.90;;;;;;4971957;28;20042;-51
2023/04/02 05:57:46;;;;;;;8.57;2.28;;;2.20;99.90;;;;;;4971200;28;20046;-52
2023/04/02 06:00:22;;;;;;;4.85;1.90;;;2.20;99.90;;;;;;4977920;28;20054;-54
2023/04/02 06:02:58;;;;;;;10.60;2.13;;;2.30;99.90;;;;;;4973799;28;20043;-52
2023/04/02 06:05:44;;;;;;;6.18;1.60;;;2.30;99.90;;;;;;4960103;28;20046;-51
2023/04/02 06:08:16;;;;;;;4.22;1.58;;;2.20;99.90;;;;;;4981588;28;20082;-53
2023/04/02 06:11:00;;;;;;;7.50;2.17;;;2.30;99.90;;;;;;4972042;28;20035;-52
2023/04/02 06:13:26;;;;;;;6.32;1.80;;;2.30;99.90;;;;;;4985242;28;20066;-51
2023/04/02 06:15:52;;;;;;;5.68;1.95;;;2.20;99.90;;;;;;4972422;28;20054;-54
2023/04/02 06:18:27;;;;;;;7.35;2.20;;;2.30;99.90;;;;;;4971111;28;20047;-52
2023/04/02 06:20:53;;;;;;;7.82;1.90;;;2.40;99.90;;;;;;4974868;28;20074;-53
2023/04/02 06:23:59;;;;;;;9.05;2.10;;;2.40;99.90;;;;;;4974408;28;20070;-53
2023/04/02 06:26:37;;;;;;;7.40;2.20;;;2.40;99.90;;;;;;4973788;28;20078;-54
2023/04/02 06:29:30;;;;;;;5.38;1.75;;;2.50;99.90;;;;;;4984187;28;20049;-50
2023/04/02 06:31:59;;;;;;;7.10;2.03;;;2.50;99.90;;;;;;4967871;28;20085;-53
2023/04/02 06:34:27;;;;;;;7.70;2.03;;;2.50;99.90;;;;;;4975703;28;20502;-52
2023/04/02 06:36:59;;;;;;;6.82;2.10;;;2.60;99.90;;;;;;4977036;28;20042;-53
2023/04/02 06:39:26;;;;;;;6.38;2.13;;;2.50;99.90;;;;;;4977077;28;20030;-53
2023/04/02 06:42:11;;;;;;;7.47;2.17;;;2.50;99.90;;;;;;4975854;28;20045;-54
2023/04/02 06:44:38;;;;;;;6.30;2.08;;;3.30;99.90;;;;;;4975502;28;20039;-51
2023/04/02 06:47:12;;;;;;;7.55;1.70;;;2.60;99.90;;;;;;4988111;28;20741;-52
2023/04/02 06:49:45;;;;;;;10.73;2.15;;;2.70;99.90;;;;;;4977548;28;20035;-50
2023/04/02 06:52:25;;;;;;;7.05;1.95;;;2.70;99.90;;;;;;4960438;28;20081;-54
2023/04/02 06:54:52;;;;;;;7.57;1.85;;;2.70;99.90;;;;;;4978024;28;20569;-55
2023/04/02 06:57:17;;;;;;;5.65;1.98;;;2.70;99.90;;;;;;4976137;28;20038;-53
2023/04/02 06:59:43;;;;;;;6.13;1.80;;;2.70;99.90;;;;;;4976055;28;20042;-54
2023/04/02 07:02:32;;;;;;;5.32;1.45;;;2.70;99.90;;;;;;4976607;28;20037;-52
2023/04/02 07:05:02;;;;;;;6.13;1.88;;;2.80;99.90;;;;;;4978860;28;20053;-52
2023/04/02 07:07:28;;;;;;;6.15;1.73;;;2.80;99.90;;;;;;4978018;28;20121;-54
2023/04/02 07:09:54;;;;;;;8.02;1.73;;;2.70;99.90;;;;;;4977473;28;20494;-50
2023/04/02 07:12:28;;;;;;;5.38;2.10;;;2.70;99.90;;;;;;4977127;28;20049;-53
2023/04/02 07:14:54;;;;;;;9.68;1.90;;;2.70;99.90;;;;;;4977460;28;20049;-54
2023/04/02 07:17:20;;;;;;;7.45;2.00;;;2.80;99.90;;;;;;4979543;28;20402;-53
2023/04/02 07:19:48;;;;;;;4.78;1.92;;;2.70;99.90;;;;;;4981458;28;20549;-52
2023/04/02 07:22:18;;;;;;;7.13;1.90;;;2.70;99.90;;;;;;4981622;28;20478;-50
2023/04/02 07:24:45;;;;;;;5.70;1.73;;;2.70;99.90;;;;;;4976962;28;20031;-53
2023/04/02 07:27:12;;;;;;;5.30;2.03;;;2.80;99.90;;;;;;4979148;28;20042;-55
2023/04/02 07:29:41;;;;;;;6.93;2.03;;;2.80;99.90;;;;;;4975592;28;20509;-54
2023/04/02 07:32:11;;;;;;;7.35;2.03;;;3.40;99.90;;;;;;4976288;28;20057;-52
2023/04/02 07:34:39;;;;;;;6.10;2.08;;;2.80;99.90;;;;;;4975767;28;20046;-52
2023/04/02 07:37:05;;;;;;;6.07;2.00;;;2.80;99.90;;;;;;4958911;28;20113;-54
2023/04/02 07:39:31;;;;;;;6.10;1.88;;;2.90;99.90;;;;;;4974964;28;20105;-54
2023/04/02 07:42:00;;;;;;;5.53;1.70;;;2.90;99.90;;;;;;4973860;28;20045;-53
2023/04/02 07:44:26;;;;;;;8.07;1.83;;;2.80;99.90;;;;;;4960331;28;20121;-51
2023/04/02 07:46:52;;;;;;;4.72;1.38;;;2.80;99.90;;;;;;4975905;28;20049;-54
2023/04/02 07:49:18;;;;;;;8.25;1.80;;;2.90;99.90;;;;;;4958956;28;20074;-54
2023/04/02 07:51:44;;;;;;;9.45;1.60;;;3.00;99.90;;;;;;4957735;28;20077;-52
2023/04/02 07:54:10;;;;;;;7.47;1.55;;;3.40;99.90;;;;;;4974872;28;20038;-54
2023/04/02 07:56:37;;;;;;;4.75;1.55;;;3.10;99.90;;;;;;4975267;28;20078;-52
2023/04/02 07:59:03;;;;;;;4.10;1.65;;;3.20;99.90;;;;;;4974441;28;20049;-54
2023/04/02 08:01:34;;;;;;;4.22;1.58;;;3.50;99.90;;;;;;4956221;28;20042;-52
2023/04/02 08:04:01;;;;;;;6.22;1.65;;;3.20;99.90;;;;;;4975832;28;20129;-52
2023/04/02 08:06:26;;;;;;;6.75;1.65;;;3.40;99.90;;;;;;4975665;28;20042;-53
2023/04/02 08:08:52;;;;;;;7.15;1.88;;;3.20;99.90;;;;;;4956802;28;20039;-50
2023/04/02 08:11:18;;;;;;;5.97;1.75;;;3.20;99.90;;;;;;4974254;28;20073;-53
2023/04/02 08:13:44;;;;;;;4.65;1.50;;;3.20;99.90;;;;;;4974689;28;20090;-53
2023/04/02 08:16:10;;;;;;;10.18;2.13;;;3.30;99.90;;;;;;4957144;28;20521;-53
2023/04/02 08:18:35;;;;;;;10.05;1.70;;;3.30;99.90;;;;;;4974357;28;20113;-52
2023/04/02 08:21:02;;;;;;;6.82;1.50;;;3.50;99.90;;;;;;4958932;28;20508;-55
2023/04/02 08:23:27;;;;;;;4.63;1.48;;;3.60;99.90;;;;;;4973043;28;20502;-53
2023/04/02 08:25:54;;;;;;;7.35;1.85;;;3.80;99.90;;;;;;4957682;28;20081;-53
2023/04/02 08:28:21;;;;;;;7.25;2.10;;;3.90;99.90;;;;;;4974350;28;20039;-53
2023/04/02 08:30:48;;;;;;;4.75;1.10;;;4.00;99.90;;;;;;4974046;28;20042;-54
2023/04/02 08:33:14;;;;;;;4.10;1.20;;;4.10;99.90;;;;;;4975359;28;20486;-53
2023/04/02 08:35:40;;;;;;;5.15;1.45;;;4.20;99.90;;;;;;4975889;28;20114;-53
2023/04/02 08:38:06;;;;;;;4.38;1.10;;;4.40;99.90;;;;;;4973494;28;20129;-52
2023/04/02 08:40:38;;;;;;;6.60;1.20;;;4.40;99.90;;;;;;4972288;28;20081;-53
2023/04/02 08:43:09;;;;;;;8.77;1.40;;;4.50;99.90;;;;;;4974900;28;20035;-50
2023/04/02 08:46:02;;;;;;;6.55;1.40;;;4.50;99.90;;;;;;4972466;28;20039;-55
2023/04/02 08:48:31;;;;;;;6.38;1.30;;;4.60;99.90;;;;;;4970579;28;20062;-54
2023/04/02 08:50:58;;;;;;;6.75;1.25;;;4.60;99.90;;;;;;4973912;28;20034;-54
2023/04/02 08:53:30;;;;;;;7.05;1.35;;;4.60;99.90;;;;;;4973962;28;20038;-54
2023/04/02 08:56:04;;;;;;;4.40;1.17;;;4.80;99.90;;;;;;4973911;28;20069;-53
2023/04/02 08:58:40;;;;;;;4.38;1.45;;;4.90;99.90;;;;;;4972545;28;20046;-54
2023/04/02 09:01:10;;;;;;;5.35;1.23;;;4.90;99.90;;;;;;4974021;28;20046;-53
2023/04/02 09:03:40;;;;;;;5.80;1.65;;;5.00;99.90;;;;;;4960453;28;20125;-54
2023/04/02 09:06:11;;;;;;;6.85;1.13;;;5.10;99.90;;;;;;4977897;28;20125;-52
2023/04/02 09:08:38;;;;;;;4.22;1.38;;;5.20;99.90;;;;;;4977477;28;20038;-56
2023/04/02 09:11:35;;;;;;;4.20;1.45;;;5.40;99.90;;;;;;4980816;28;20047;-51
2023/04/02 09:14:04;;;;;;;5.55;1.23;;;5.50;99.90;;;;;;4972373;28;20059;-55
2023/04/02 09:16:42;;;;;;;4.25;1.27;;;5.70;99.90;;;;;;4954769;28;20074;-55
2023/04/02 09:19:36;;;;;;;4.55;1.20;;;5.80;99.90;;;;;;4973243;28;20070;-54
2023/04/02 09:22:25;;;;;;;6.30;1.15;;;6.00;99.90;;;;;;4971048;28;20055;-54
2023/04/02 09:24:52;;;;;;;6.93;1.25;;;6.10;99.90;;;;;;4977263;28;20047;-54
2023/04/02 09:27:22;;;;;;;4.93;1.25;;;6.20;99.90;;;;;;4972552;28;20114;-53
2023/04/02 09:29:52;;;;;;;7.40;1.55;;;6.40;99.90;;;;;;4972918;28;20031;-51
2023/04/02 09:32:51;;;;;;;8.38;1.92;;;6.30;99.90;;;;;;4983650;28;20126;-50
2023/04/02 09:35:18;;;;;;;6.28;1.60;;;6.10;99.90;;;;;;4971907;28;20046;-53
2023/04/02 09:37:45;;;;;;;5.35;1.30;;;6.10;99.90;;;;;;4972061;28;20089;-54
2023/04/02 09:40:26;;;;;;;6.40;1.35;;;6.10;99.90;;;;;;4972997;28;20485;-53
2023/04/02 09:43:20;;;;;;;9.63;1.50;;;6.10;99.90;;;;;;4975816;28;20039;-53
2023/04/02 09:46:23;;;;;;;7.67;1.70;;;6.20;99.90;;;;;;4970841;28;20046;-54
2023/04/02 09:48:54;;;;;;;5.28;1.30;;;6.30;99.90;;;;;;4971339;28;20273;-54
2023/04/02 09:51:22;;;;;;;3.60;1.10;;;6.40;99.90;;;;;;4973917;28;20054;-56
2023/04/02 09:53:50;;;;;;;3.17;1.05;;;6.90;99.90;;;;;;4971844;28;20168;-54
2023/04/02 09:56:25;;;;;;;6.65;1.60;;;6.60;99.90;;;;;;4975075;28;20043;-55
2023/04/02 09:59:12;;;;;;;2.80;1.27;;;6.80;99.90;;;;;;4981960;28;20053;-51
2023/04/02 10:01:41;;;;;;;5.15;1.35;;;6.90;99.90;;;;;;4976335;28;20057;-54
2023/04/02 10:04:34;;;;;;;4.07;1.13;;;7.10;99.90;;;;;;4977553;28;20035;-54
2023/04/02 10:07:02;;;;;;;6.35;1.30;;;7.10;99.90;;;;;;4981357;28;20536;-53
2023/04/02 10:09:29;;;;;;;4.15;1.40;;;7.00;99.90;;;;;;4974953;28;20390;-53
2023/04/02 10:11:56;;;;;;;5.90;1.05;;;7.00;99.90;;;;;;4979825;28;20049;-54
2023/04/02 10:14:32;;;;;;;6.32;1.45;;;7.10;99.90;;;;;;4975403;28;20193;-54
2023/04/02 10:17:16;;;;;;;4.97;1.13;;;7.20;99.90;;;;;;4979054;28;20038;-54
2023/04/02 10:19:52;;;;;;;4.37;1.33;;;7.30;99.90;;;;;;4982558;28;20078;-55
2023/04/02 10:22:21;;;;;;;4.72;1.30;;;7.40;99.90;;;;;;4981645;28;20270;-52
2023/04/02 10:24:48;;;;;;;6.55;1.60;;;7.40;99.90;;;;;;4989819;28;20054;-55
2023/04/02 10:27:57;;;;;;;2.83;0.98;;;7.50;99.90;;;;;;4986821;28;20505;-52
2023/04/02 10:30:43;;;;;;;5.15;1.30;;;7.60;99.90;;;;;;4933448;29;20078;-53
2023/04/02 10:33:16;;;;;;;4.22;1.38;;;7.70;99.90;;;;;;4933379;29;20185;-52
2023/04/02 10:36:08;;;;;;;6.30;1.40;;;7.60;99.90;;;;;;4961648;28;20789;-50
2023/04/02 10:38:57;;;;;;;7.38;1.48;;;7.50;99.90;;;;;;4986665;28;20390;-54
2023/04/02 10:41:38;;;;;;;9.55;1.58;;;7.50;99.90;;;;;;4974962;28;20113;-54
2023/04/02 10:44:26;;;;;;;4.97;1.08;;;7.60;99.90;;;;;;4982564;28;20055;-52
2023/04/02 10:46:54;;;;;;;2.90;1.20;;;7.70;99.90;;;;;;4967129;28;20038;-52
2023/04/02 10:49:31;;;;;;;5.18;1.33;;;8.00;99.90;;;;;;4976896;28;20469;-52
2023/04/02 10:52:05;;;;;;;5.70;1.30;;;8.20;99.90;;;;;;4974267;28;20073;-54
2023/04/02 10:54:50;;;;;;;4.88;1.27;;;8.20;99.90;;;;;;4976527;28;20050;-54
2023/04/02 10:57:34;;;;;;;4.20;1.30;;;8.30;99.90;;;;;;4962859;28;20433;-54
2023/04/02 11:00:26;;;;;;;5.85;1.33;;;8.50;99.90;;;;;;4989982;28;20050;-55
2023/04/02 11:03:12;;;;;;;5.15;1.27;;;8.70;99.90;;;;;;4976794;28;20051;-55
2023/04/02 11:05:53;;;;;;;3.00;1.20;;;8.80;99.90;;;;;;4978136;28;20520;-52
2023/04/02 11:08:36;;;;;;;5.20;1.20;;;8.90;99.90;;;;;;4981462;28;20035;-54
2023/04/02 11:11:21;;;;;;;5.18;1.20;;;9.00;99.90;;;;;;4980345;28;20057;-52
2023/04/02 11:14:07;;;;;;;3.85;1.30;;;9.20;99.90;;;;;;4970538;28;20065;-52
2023/04/02 11:16:33;;;;;;;6.07;1.75;;;9.20;99.90;;;;;;4980683;28;20533;-57
2023/04/02 11:19:14;;;;;;;5.40;1.30;;;9.30;99.90;;;;;;4974365;28;20030;-54
2023/04/02 11:21:41;;;;;;;4.03;1.35;;;9.40;99.90;;;;;;4978777;28;20046;-54
2023/04/02 11:24:24;;;;;;;5.47;1.50;;;9.50;99.90;;;;;;4974301;28;20067;-54
2023/04/02 11:26:52;;;;;;;4.88;1.33;;;9.80;99.90;;;;;;4978096;28;20442;-53
2023/04/02 11:29:23;;;;;;;5.28;1.50;;;9.90;99.90;;;;;;4973158;28;20105;-53
2023/04/02 11:32:10;;;;;;;5.13;1.10;;;9.80;99.90;;;;;;4976001;28;20395;-52
2023/04/02 11:34:48;;;;;;;5.47;1.63;;;9.90;99.90;;;;;;4973950;28;20077;-52
2023/04/02 11:37:43;;;;;;;4.45;1.60;;;10.10;99.90;;;;;;4983968;28;20109;-52
2023/04/02 11:40:14;;;;;;;7.05;1.63;;;10.30;99.90;;;;;;4986273;28;20097;-51
2023/04/02 11:42:51;;;;;;;3.60;1.20;;;10.40;99.90;;;;;;4987926;28;20121;-51
2023/04/02 11:45:20;;;;;;;6.00;1.50;;;10.30;99.90;;;;;;4948968;28;20042;-52
2023/04/02 11:48:02;;;;;;;5.18;1.20;;;10.30;99.90;;;;;;4976867;28;20085;-52
2023/04/02 11:50:36;;;;;;;5.57;1.40;;;10.20;99.90;;;;;;4980939;28;20051;-50
2023/04/02 11:53:03;;;;;;;4.07;1.17;;;10.30;99.90;;;;;;4974080;28;20506;-52
2023/04/02 11:55:33;;;;;;;3.38;1.13;;;10.60;99.90;;;;;;4973939;28;20046;-53
2023/04/02 11:58:05;;;;;;;4.75;1.23;;;10.90;99.90;;;;;;4986202;28;20062;-50
2023/04/02 12:01:13;;;;;;;4.00;1.25;;;11.10;99.90;;;;;;4979119;28;20114;-51
2023/04/02 12:03:42;;;;;;;4.70;1.52;;;11.30;99.90;;;;;;4988066;28;20045;-52
2023/04/02 12:06:12;;;;;;;3.78;1.30;;;11.30;99.90;;;;;;4964702;28;20490;-50
2023/04/02 12:08:46;;;;;;;3.88;1.15;;;11.30;99.90;;;;;;4978720;28;20047;-54
2023/04/02 12:11:13;;;;;;;3.15;0.88;;;11.30;99.90;;;;;;4982339;28;20129;-53
2023/04/02 12:13:38;;;;;;;5.25;1.50;;;11.40;99.90;;;;;;4965729;28;20437;-51
2023/04/02 12:16:15;;;;;;;4.95;1.33;;;11.60;99.90;;;;;;4983604;28;20101;-53
2023/04/02 12:18:45;;;;;;;4.13;1.13;;;11.80;99.90;;;;;;4978184;28;20049;-54
2023/04/02 12:21:22;;;;;;;4.25;1.10;;;11.90;99.90;;;;;;4981391;28;20039;-52
2023/04/02 12:23:53;;;;;;;3.22;0.95;;;12.10;99.90;;;;;;4981862;28;20560;-52
2023/04/02 12:26:36;;;;;;;3.95;1.10;;;12.20;99.90;;;;;;4979117;28;20082;-53
2023/04/02 12:29:26;;;;;;;5.60;1.25;;;12.30;99.90;;;;;;4983424;28;20034;-50
2023/04/02 12:31:56;;;;;;;6.65;1.13;;;12.50;99.90;;;;;;4973710;28;20038;-50
2023/04/02 12:34:25;;;;;;;4.40;1.00;;;12.60;99.90;;;;;;4980232;28;20050;-53
2023/04/02 12:37:02;;;;;;;3.80;1.23;;;12.80;99.90;;;;;;4973356;28;20121;-53
2023/04/02 12:39:28;;;;;;;3.33;1.10;;;13.00;99.90;;;;;;4989098;28;20048;-49
2023/04/02 12:41:55;;;;;;;4.25;1.15;;;13.10;99.90;;;;;;4971704;28;20034;-54
2023/04/02 12:44:24;;;;;;;3.33;1.10;;;13.20;99.90;;;;;;4977297;28;20105;-53
2023/04/02 12:46:51;;;;;;;3.90;1.05;;;13.30;99.90;;;;;;4972869;28;20429;-54
2023/04/02 12:49:38;;;;;;;3.97;1.00;;;13.30;99.90;;;;;;4958668;28;20033;-51
2023/04/02 12:52:10;;;;;;;4.35;1.35;;;13.50;99.90;;;;;;4973133;28;20043;-53
2023/04/02 12:54:52;;;;;;;4.35;1.50;;;13.50;99.90;;;;;;4972709;28;20046;-53
2023/04/02 12:57:21;;;;;;;4.65;1.20;;;13.70;99.90;;;;;;4973135;28;20119;-54
2023/04/02 12:59:47;;;;;;;3.13;0.90;;;13.60;99.90;;;;;;4971776;28;20043;-53
2023/04/02 13:02:44;;;;;;;5.22;1.05;;;13.70;99.90;;;;;;4978397;28;20086;-54
2023/04/02 13:05:11;;;;;;;5.35;1.40;;;13.70;99.90;;;;;;4976198;28;20038;-52
2023/04/02 13:07:37;;;;;;;4.22;1.42;;;13.80;99.90;;;;;;4956284;28;20498;-53
2023/04/02 13:10:20;;;;;;;5.38;1.05;;;13.90;99.90;;;;;;4973037;28;20048;-54
2023/04/02 13:12:46;;;;;;;4.28;1.00;;;13.90;99.90;;;;;;4985479;28;20051;-55
2023/04/02 13:15:22;;;;;;;6.60;1.50;;;14.00;99.90;;;;;;4977479;28;20097;-53
2023/04/02 13:18:00;;;;;;;3.72;0.90;;;14.10;99.90;;;;;;4971307;28;20097;-55
2023/04/02 13:20:40;;;;;;;5.32;1.30;;;14.10;99.90;;;;;;4974125;28;20049;-54
2023/04/02 13:23:36;;;;;;;3.72;1.10;;;14.10;99.90;;;;;;4978014;28;20042;-53
2023/04/02 13:26:10;;;;;;;4.28;1.20;;;14.10;99.90;;;;;;4972618;28;20387;-51
2023/04/02 13:28:36;;;;;;;3.92;1.17;;;14.00;99.90;;;;;;4973622;28;20047;-52
2023/04/02 13:31:02;;;;;;;3.72;0.90;;;14.10;99.90;;;;;;4972844;28;20038;-52
2023/04/02 13:33:28;;;;;;;4.45;1.20;;;14.40;99.90;;;;;;4973953;28;20371;-51
2023/04/02 13:35:54;;;;;;;3.83;1.00;;;14.60;99.90;;;;;;4972956;28;20090;-50